sensor_id;sensor_type;location;lat;lon;timestamp;P1;durP1;ratioP1;P2;durP2;ratioP2
66384;SDS011;53426;55.872;37.462;2023-04-03T00:00:56;13.90;;;9.80;;
66384;SDS011;53426;55.872;37.462;2023-04-03T00:03:22;10.98;;;9.63;;
66384;SDS011;53426;55.872;37.462;2023-04-03T00:05:48;15.98;;;9.57;;
66384;SDS011;53426;55.872;37.462;2023-04-03T00:08:15;16.00;;;10.30;;
66384;SDS011;53426;55.872;37.462;2023-04-03T00:10:41;13.50;;;9.05;;
66384;SDS011;53426;55.872;37.462;2023-04-03T00:13:07;12.25;;;9.05;;
66384;SDS011;53426;55.872;37.462;2023-04-03T00:15:33;15.68;;;9.27;;
66384;SDS011;53426;55.872;37.462;2023-04-03T00:18:00;12.27;;;9.63;;
66384;SDS011;53426;55.872;37.462;2023-04-03T00:20:27;14.20;;;9.77;;
66384;SDS011;53426;55.872;37.462;2023-04-03T00:22:53;15.10;;;9.68;;
66384;SDS011;53426;55.872;37.462;2023-04-03T00:25:20;12.77;;;9.93;;
66384;SDS011;53426;55.872;37.462;2023-04-03T00:27:46;15.60;;;9.80;;
66384;SDS011;53426;55.872;37.462;2023-04-03T00:30:13;12.98;;;9.95;;
66384;SDS011;53426;55.872;37.462;2023-04-03T00:32:40;14.55;;;10.05;;
66384;SDS011;53426;55.872;37.462;2023-04-03T00:35:07;12.68;;;9.85;;
66384;SDS011;53426;55.872;37.462;2023-04-03T00:37:33;16.17;;;11.00;;
66384;SDS011;53426;55.872;37.462;2023-04-03T00:39:59;14.20;;;10.48;;
66384;SDS011;53426;55.872;37.462;2023-04-03T00:42:25;18.08;;;10.80;;
66384;SDS011;53426;55.872;37.462;2023-04-03T00:47:23;14.30;;;11.07;;
66384;SDS011;53426;55.872;37.462;2023-04-03T00:49:50;18.23;;;11.05;;
66384;SDS011;53426;55.872;37.462;2023-04-03T00:52:17;12.88;;;10.77;;
66384;SDS011;53426;55.872;37.462;2023-04-03T00:54:47;14.70;;;11.02;;
66384;SDS011;53426;55.872;37.462;2023-04-03T00:57:15;14.45;;;11.05;;
66384;SDS011;53426;55.872;37.462;2023-04-03T00:59:43;15.00;;;10.82;;
66384;SDS011;53426;55.872;37.462;2023-04-03T01:02:14;16.92;;;11.43;;
66384;SDS011;53426;55.872;37.462;2023-04-03T01:04:41;14.88;;;10.52;;
66384;SDS011;53426;55.872;37.462;2023-04-03T01:07:26;13.65;;;11.75;;
66384;SDS011;53426;55.872;37.462;2023-04-03T01:09:59;14.25;;;11.23;;
66384;SDS011;53426;55.872;37.462;2023-04-03T01:12:28;18.95;;;11.27;;
66384;SDS011;53426;55.872;37.462;2023-04-03T01:15:12;16.88;;;11.70;;
66384;SDS011;53426;55.872;37.462;2023-04-03T01:17:47;18.73;;;12.07;;
66384;SDS011;53426;55.872;37.462;2023-04-03T01:25:48;16.77;;;11.32;;
66384;SDS011;53426;55.872;37.462;2023-04-03T01:28:18;16.17;;;10.57;;
66384;SDS011;53426;55.872;37.462;2023-04-03T01:33:42;19.55;;;10.88;;
66384;SDS011;53426;55.872;37.462;2023-04-03T01:36:09;14.63;;;10.52;;
66384;SDS011;53426;55.872;37.462;2023-04-03T01:38:38;16.90;;;11.27;;
66384;SDS011;53426;55.872;37.462;2023-04-03T01:41:04;18.40;;;12.48;;
66384;SDS011;53426;55.872;37.462;2023-04-03T01:43:30;16.38;;;11.05;;
66384;SDS011;53426;55.872;37.462;2023-04-03T01:45:56;19.13;;;11.52;;
66384;SDS011;53426;55.872;37.462;2023-04-03T01:48:21;19.70;;;14.40;;
66384;SDS011;53426;55.872;37.462;2023-04-03T01:50:47;21.40;;;13.43;;
66384;SDS011;53426;55.872;37.462;2023-04-03T01:53:13;28.85;;;15.88;;
66384;SDS011;53426;55.872;37.462;2023-04-03T01:55:39;23.98;;;15.82;;
66384;SDS011;53426;55.872;37.462;2023-04-03T01:58:05;23.35;;;16.42;;
66384;SDS011;53426;55.872;37.462;2023-04-03T02:00:31;25.23;;;15.35;;
66384;SDS011;53426;55.872;37.462;2023-04-03T02:02:57;21.80;;;14.80;;
66384;SDS011;53426;55.872;37.462;2023-04-03T02:05:24;21.67;;;13.80;;
66384;SDS011;53426;55.872;37.462;2023-04-03T02:07:50;19.27;;;14.45;;
66384;SDS011;53426;55.872;37.462;2023-04-03T02:10:16;22.98;;;15.30;;
66384;SDS011;53426;55.872;37.462;2023-04-03T02:12:43;20.73;;;14.45;;
66384;SDS011;53426;55.872;37.462;2023-04-03T02:15:09;21.10;;;13.98;;
66384;SDS011;53426;55.872;37.462;2023-04-03T02:17:36;20.58;;;14.02;;
66384;SDS011;53426;55.872;37.462;2023-04-03T02:20:02;18.45;;;13.48;;
66384;SDS011;53426;55.872;37.462;2023-04-03T02:22:29;22.10;;;14.02;;
66384;SDS011;53426;55.872;37.462;2023-04-03T02:24:56;22.52;;;13.65;;
66384;SDS011;53426;55.872;37.462;2023-04-03T02:27:21;19.25;;;13.45;;
66384;SDS011;53426;55.872;37.462;2023-04-03T02:29:47;17.75;;;13.43;;
66384;SDS011;53426;55.872;37.462;2023-04-03T02:32:14;19.95;;;13.27;;
66384;SDS011;53426;55.872;37.462;2023-04-03T02:34:40;19.83;;;12.77;;
66384;SDS011;53426;55.872;37.462;2023-04-03T02:37:06;16.35;;;13.40;;
66384;SDS011;53426;55.872;37.462;2023-04-03T02:39:34;16.27;;;12.48;;
66384;SDS011;53426;55.872;37.462;2023-04-03T02:42:00;17.98;;;12.35;;
66384;SDS011;53426;55.872;37.462;2023-04-03T02:44:27;21.30;;;13.95;;
66384;SDS011;53426;55.872;37.462;2023-04-03T02:46:53;19.67;;;13.45;;
66384;SDS011;53426;55.872;37.462;2023-04-03T02:49:18;23.02;;;12.75;;
66384;SDS011;53426;55.872;37.462;2023-04-03T02:51:44;16.63;;;12.60;;
66384;SDS011;53426;55.872;37.462;2023-04-03T02:54:11;16.58;;;13.23;;
66384;SDS011;53426;55.872;37.462;2023-04-03T02:56:41;18.42;;;13.30;;
66384;SDS011;53426;55.872;37.462;2023-04-03T02:59:07;18.10;;;12.48;;
66384;SDS011;53426;55.872;37.462;2023-04-03T03:01:35;15.00;;;12.00;;
66384;SDS011;53426;55.872;37.462;2023-04-03T03:04:01;18.83;;;12.52;;
66384;SDS011;53426;55.872;37.462;2023-04-03T03:06:27;15.70;;;11.07;;
66384;SDS011;53426;55.872;37.462;2023-04-03T03:08:53;18.40;;;10.20;;
66384;SDS011;53426;55.872;37.462;2023-04-03T03:11:19;21.25;;;10.52;;
66384;SDS011;53426;55.872;37.462;2023-04-03T03:13:46;21.67;;;12.57;;
66384;SDS011;53426;55.872;37.462;2023-04-03T03:16:12;17.27;;;12.27;;
66384;SDS011;53426;55.872;37.462;2023-04-03T03:18:38;19.77;;;12.27;;
66384;SDS011;53426;55.872;37.462;2023-04-03T03:21:04;18.92;;;12.18;;
66384;SDS011;53426;55.872;37.462;2023-04-03T03:23:31;19.55;;;12.02;;
66384;SDS011;53426;55.872;37.462;2023-04-03T03:26:01;18.88;;;13.00;;
66384;SDS011;53426;55.872;37.462;2023-04-03T03:28:29;20.00;;;11.85;;
66384;SDS011;53426;55.872;37.462;2023-04-03T03:30:57;19.23;;;11.82;;
66384;SDS011;53426;55.872;37.462;2023-04-03T03:33:23;18.02;;;11.57;;
66384;SDS011;53426;55.872;37.462;2023-04-03T03:35:51;18.48;;;11.90;;
66384;SDS011;53426;55.872;37.462;2023-04-03T03:38:17;22.80;;;12.15;;
66384;SDS011;53426;55.872;37.462;2023-04-03T03:40:44;21.67;;;13.23;;
66384;SDS011;53426;55.872;37.462;2023-04-03T03:43:10;21.98;;;12.93;;
66384;SDS011;53426;55.872;37.462;2023-04-03T03:45:36;20.88;;;12.30;;
66384;SDS011;53426;55.872;37.462;2023-04-03T03:48:02;19.63;;;12.63;;
66384;SDS011;53426;55.872;37.462;2023-04-03T03:50:29;15.95;;;11.63;;
66384;SDS011;53426;55.872;37.462;2023-04-03T03:52:55;16.48;;;11.35;;
66384;SDS011;53426;55.872;37.462;2023-04-03T03:55:21;22.48;;;12.00;;
66384;SDS011;53426;55.872;37.462;2023-04-03T03:57:51;18.55;;;11.60;;
66384;SDS011;53426;55.872;37.462;2023-04-03T04:00:17;20.35;;;12.10;;
66384;SDS011;53426;55.872;37.462;2023-04-03T04:02:50;20.90;;;11.63;;
66384;SDS011;53426;55.872;37.462;2023-04-03T04:05:19;21.13;;;12.50;;
66384;SDS011;53426;55.872;37.462;2023-04-03T04:07:45;16.60;;;11.05;;
66384;SDS011;53426;55.872;37.462;2023-04-03T04:10:11;19.00;;;12.77;;
66384;SDS011;53426;55.872;37.462;2023-04-03T04:12:39;19.75;;;11.13;;
66384;SDS011;53426;55.872;37.462;2023-04-03T04:15:06;20.70;;;11.43;;
66384;SDS011;53426;55.872;37.462;2023-04-03T04:17:32;16.35;;;11.05;;
66384;SDS011;53426;55.872;37.462;2023-04-03T04:20:02;18.02;;;11.77;;
66384;SDS011;53426;55.872;37.462;2023-04-03T04:22:29;18.08;;;11.23;;
66384;SDS011;53426;55.872;37.462;2023-04-03T04:24:54;16.75;;;10.65;;
66384;SDS011;53426;55.872;37.462;2023-04-03T04:27:20;19.13;;;10.30;;
66384;SDS011;53426;55.872;37.462;2023-04-03T04:29:46;15.50;;;10.77;;
66384;SDS011;53426;55.872;37.462;2023-04-03T04:32:12;17.35;;;11.57;;
66384;SDS011;53426;55.872;37.462;2023-04-03T04:34:39;24.88;;;11.68;;
66384;SDS011;53426;55.872;37.462;2023-04-03T04:37:05;20.05;;;11.98;;
66384;SDS011;53426;55.872;37.462;2023-04-03T04:39:31;19.33;;;12.18;;
66384;SDS011;53426;55.872;37.462;2023-04-03T04:41:58;19.58;;;11.73;;
66384;SDS011;53426;55.872;37.462;2023-04-03T04:44:26;18.20;;;11.98;;
66384;SDS011;53426;55.872;37.462;2023-04-03T04:46:52;17.70;;;11.70;;
66384;SDS011;53426;55.872;37.462;2023-04-03T04:49:19;23.58;;;11.55;;
66384;SDS011;53426;55.872;37.462;2023-04-03T04:51:45;16.25;;;11.77;;
66384;SDS011;53426;55.872;37.462;2023-04-03T04:54:13;22.73;;;12.73;;
66384;SDS011;53426;55.872;37.462;2023-04-03T04:56:39;19.75;;;12.43;;
66384;SDS011;53426;55.872;37.462;2023-04-03T04:59:06;21.73;;;12.90;;
66384;SDS011;53426;55.872;37.462;2023-04-03T05:01:32;17.17;;;13.52;;
66384;SDS011;53426;55.872;37.462;2023-04-03T05:04:08;27.65;;;13.38;;
66384;SDS011;53426;55.872;37.462;2023-04-03T05:06:34;22.58;;;14.07;;
66384;SDS011;53426;55.872;37.462;2023-04-03T05:09:03;24.55;;;13.85;;
66384;SDS011;53426;55.872;37.462;2023-04-03T05:11:31;23.27;;;14.27;;
66384;SDS011;53426;55.872;37.462;2023-04-03T05:13:56;21.58;;;13.50;;
66384;SDS011;53426;55.872;37.462;2023-04-03T05:16:24;20.10;;;13.73;;
66384;SDS011;53426;55.872;37.462;2023-04-03T05:18:51;16.38;;;13.60;;
66384;SDS011;53426;55.872;37.462;2023-04-03T05:21:19;22.75;;;14.40;;
66384;SDS011;53426;55.872;37.462;2023-04-03T05:23:47;22.50;;;15.15;;
66384;SDS011;53426;55.872;37.462;2023-04-03T05:26:13;21.83;;;14.27;;
66384;SDS011;53426;55.872;37.462;2023-04-03T05:28:39;35.50;;;15.02;;
66384;SDS011;53426;55.872;37.462;2023-04-03T05:31:06;19.90;;;14.50;;
66384;SDS011;53426;55.872;37.462;2023-04-03T05:33:35;36.47;;;15.27;;
66384;SDS011;53426;55.872;37.462;2023-04-03T05:36:03;21.80;;;14.05;;
66384;SDS011;53426;55.872;37.462;2023-04-03T05:38:31;20.00;;;12.85;;
66384;SDS011;53426;55.872;37.462;2023-04-03T05:40:58;21.10;;;13.35;;
66384;SDS011;53426;55.872;37.462;2023-04-03T05:43:24;17.70;;;13.32;;
66384;SDS011;53426;55.872;37.462;2023-04-03T05:45:50;25.65;;;14.30;;
66384;SDS011;53426;55.872;37.462;2023-04-03T05:48:18;19.42;;;13.32;;
66384;SDS011;53426;55.872;37.462;2023-04-03T05:50:44;20.92;;;13.40;;
66384;SDS011;53426;55.872;37.462;2023-04-03T05:53:22;17.87;;;13.10;;
66384;SDS011;53426;55.872;37.462;2023-04-03T05:58:20;20.35;;;12.93;;
66384;SDS011;53426;55.872;37.462;2023-04-03T06:00:47;18.90;;;12.88;;
66384;SDS011;53426;55.872;37.462;2023-04-03T06:03:14;23.02;;;12.93;;
66384;SDS011;53426;55.872;37.462;2023-04-03T06:05:41;17.80;;;12.98;;
66384;SDS011;53426;55.872;37.462;2023-04-03T06:08:09;18.92;;;12.55;;
66384;SDS011;53426;55.872;37.462;2023-04-03T06:10:35;30.08;;;13.75;;
66384;SDS011;53426;55.872;37.462;2023-04-03T06:13:02;19.65;;;13.45;;
66384;SDS011;53426;55.872;37.462;2023-04-03T06:15:28;21.88;;;13.60;;
66384;SDS011;53426;55.872;37.462;2023-04-03T06:17:54;20.48;;;13.85;;
66384;SDS011;53426;55.872;37.462;2023-04-03T06:20:20;27.45;;;14.07;;
66384;SDS011;53426;55.872;37.462;2023-04-03T06:22:48;22.05;;;13.18;;
66384;SDS011;53426;55.872;37.462;2023-04-03T06:25:13;20.17;;;14.13;;
66384;SDS011;53426;55.872;37.462;2023-04-03T06:27:39;23.70;;;13.88;;
66384;SDS011;53426;55.872;37.462;2023-04-03T06:30:06;21.25;;;13.55;;
66384;SDS011;53426;55.872;37.462;2023-04-03T06:32:32;21.55;;;13.75;;
66384;SDS011;53426;55.872;37.462;2023-04-03T06:34:58;23.17;;;14.07;;
66384;SDS011;53426;55.872;37.462;2023-04-03T06:37:25;18.77;;;13.25;;
66384;SDS011;53426;55.872;37.462;2023-04-03T06:39:51;22.20;;;13.55;;
66384;SDS011;53426;55.872;37.462;2023-04-03T06:42:17;25.67;;;14.27;;
66384;SDS011;53426;55.872;37.462;2023-04-03T06:44:53;19.80;;;13.23;;
66384;SDS011;53426;55.872;37.462;2023-04-03T06:47:20;23.48;;;12.80;;
66384;SDS011;53426;55.872;37.462;2023-04-03T06:49:46;21.35;;;14.25;;
66384;SDS011;53426;55.872;37.462;2023-04-03T06:52:12;30.58;;;13.70;;
66384;SDS011;53426;55.872;37.462;2023-04-03T06:54:38;22.45;;;13.27;;
66384;SDS011;53426;55.872;37.462;2023-04-03T06:57:05;19.40;;;12.50;;
66384;SDS011;53426;55.872;37.462;2023-04-03T06:59:31;18.52;;;11.70;;
66384;SDS011;53426;55.872;37.462;2023-04-03T07:01:57;18.60;;;11.30;;
66384;SDS011;53426;55.872;37.462;2023-04-03T07:04:25;18.98;;;11.82;;
66384;SDS011;53426;55.872;37.462;2023-04-03T07:06:51;19.42;;;11.15;;
66384;SDS011;53426;55.872;37.462;2023-04-03T07:09:18;22.63;;;10.57;;
66384;SDS011;53426;55.872;37.462;2023-04-03T07:11:44;21.55;;;12.60;;
66384;SDS011;53426;55.872;37.462;2023-04-03T07:14:10;20.75;;;12.77;;
66384;SDS011;53426;55.872;37.462;2023-04-03T07:16:36;21.50;;;12.45;;
66384;SDS011;53426;55.872;37.462;2023-04-03T07:19:02;17.27;;;11.63;;
66384;SDS011;53426;55.872;37.462;2023-04-03T07:21:28;25.60;;;12.15;;
66384;SDS011;53426;55.872;37.462;2023-04-03T07:23:54;23.30;;;11.88;;
66384;SDS011;53426;55.872;37.462;2023-04-03T07:26:21;22.08;;;11.77;;
66384;SDS011;53426;55.872;37.462;2023-04-03T07:28:48;22.63;;;11.68;;
66384;SDS011;53426;55.872;37.462;2023-04-03T07:31:15;17.40;;;11.75;;
66384;SDS011;53426;55.872;37.462;2023-04-03T07:33:42;23.17;;;11.70;;
66384;SDS011;53426;55.872;37.462;2023-04-03T07:36:09;24.05;;;12.70;;
66384;SDS011;53426;55.872;37.462;2023-04-03T07:38:36;16.77;;;11.82;;
66384;SDS011;53426;55.872;37.462;2023-04-03T07:41:02;19.75;;;11.68;;
66384;SDS011;53426;55.872;37.462;2023-04-03T07:43:29;18.45;;;11.77;;
66384;SDS011;53426;55.872;37.462;2023-04-03T07:45:55;17.60;;;12.00;;
66384;SDS011;53426;55.872;37.462;2023-04-03T07:48:23;26.80;;;12.65;;
66384;SDS011;53426;55.872;37.462;2023-04-03T07:50:50;25.30;;;11.68;;
66384;SDS011;53426;55.872;37.462;2023-04-03T07:53:16;20.02;;;12.10;;
66384;SDS011;53426;55.872;37.462;2023-04-03T07:55:43;23.05;;;12.50;;
66384;SDS011;53426;55.872;37.462;2023-04-03T07:58:12;16.05;;;11.88;;
66384;SDS011;53426;55.872;37.462;2023-04-03T08:00:40;20.38;;;11.50;;
66384;SDS011;53426;55.872;37.462;2023-04-03T08:03:09;19.08;;;12.45;;
66384;SDS011;53426;55.872;37.462;2023-04-03T08:05:39;24.85;;;11.68;;
66384;SDS011;53426;55.872;37.462;2023-04-03T08:08:07;37.22;;;12.40;;
66384;SDS011;53426;55.872;37.462;2023-04-03T08:10:33;23.35;;;13.05;;
66384;SDS011;53426;55.872;37.462;2023-04-03T08:13:00;19.80;;;12.70;;
66384;SDS011;53426;55.872;37.462;2023-04-03T08:15:26;24.27;;;13.10;;
66384;SDS011;53426;55.872;37.462;2023-04-03T08:17:52;23.30;;;12.13;;
66384;SDS011;53426;55.872;37.462;2023-04-03T08:20:18;32.28;;;13.80;;
66384;SDS011;53426;55.872;37.462;2023-04-03T08:22:44;27.42;;;14.98;;
66384;SDS011;53426;55.872;37.462;2023-04-03T08:25:10;27.50;;;13.82;;
66384;SDS011;53426;55.872;37.462;2023-04-03T08:27:37;27.92;;;14.02;;
66384;SDS011;53426;55.872;37.462;2023-04-03T08:30:03;24.80;;;13.55;;
66384;SDS011;53426;55.872;37.462;2023-04-03T08:32:29;32.92;;;14.63;;
66384;SDS011;53426;55.872;37.462;2023-04-03T08:34:55;34.65;;;15.20;;
66384;SDS011;53426;55.872;37.462;2023-04-03T08:37:21;27.35;;;14.70;;
66384;SDS011;53426;55.872;37.462;2023-04-03T08:39:47;30.17;;;14.30;;
66384;SDS011;53426;55.872;37.462;2023-04-03T08:44:59;33.58;;;13.93;;
66384;SDS011;53426;55.872;37.462;2023-04-03T08:47:43;21.00;;;11.85;;
66384;SDS011;53426;55.872;37.462;2023-04-03T08:50:21;25.58;;;12.70;;
66384;SDS011;53426;55.872;37.462;2023-04-03T08:52:56;30.02;;;13.38;;
66384;SDS011;53426;55.872;37.462;2023-04-03T08:58:15;28.65;;;13.00;;
66384;SDS011;53426;55.872;37.462;2023-04-03T09:00:50;34.05;;;12.63;;
66384;SDS011;53426;55.872;37.462;2023-04-03T09:03:18;29.10;;;12.77;;
66384;SDS011;53426;55.872;37.462;2023-04-03T09:05:57;27.17;;;12.73;;
66384;SDS011;53426;55.872;37.462;2023-04-03T09:08:44;27.25;;;13.13;;
66384;SDS011;53426;55.872;37.462;2023-04-03T09:13:49;28.67;;;13.25;;
66384;SDS011;53426;55.872;37.462;2023-04-03T09:17:19;24.60;;;13.43;;
66384;SDS011;53426;55.872;37.462;2023-04-03T09:19:22;28.60;;;13.63;;
66384;SDS011;53426;55.872;37.462;2023-04-03T09:22:03;21.55;;;12.85;;
66384;SDS011;53426;55.872;37.462;2023-04-03T09:24:42;26.98;;;13.73;;
66384;SDS011;53426;55.872;37.462;2023-04-03T09:27:11;24.70;;;13.63;;
66384;SDS011;53426;55.872;37.462;2023-04-03T09:29:57;33.38;;;12.65;;
66384;SDS011;53426;55.872;37.462;2023-04-03T09:32:28;20.92;;;12.32;;
66384;SDS011;53426;55.872;37.462;2023-04-03T09:35:00;26.92;;;12.00;;
66384;SDS011;53426;55.872;37.462;2023-04-03T09:40:51;29.65;;;12.57;;
66384;SDS011;53426;55.872;37.462;2023-04-03T09:43:29;31.42;;;12.82;;
66384;SDS011;53426;55.872;37.462;2023-04-03T09:45:56;23.95;;;13.30;;
66384;SDS011;53426;55.872;37.462;2023-04-03T09:48:52;23.50;;;12.73;;
66384;SDS011;53426;55.872;37.462;2023-04-03T09:51:24;20.85;;;12.40;;
66384;SDS011;53426;55.872;37.462;2023-04-03T09:53:53;27.27;;;13.25;;
66384;SDS011;53426;55.872;37.462;2023-04-03T09:56:25;25.80;;;12.68;;
66384;SDS011;53426;55.872;37.462;2023-04-03T10:01:58;31.85;;;12.32;;
66384;SDS011;53426;55.872;37.462;2023-04-03T10:04:25;23.25;;;12.52;;
66384;SDS011;53426;55.872;37.462;2023-04-03T10:07:25;24.75;;;12.90;;
66384;SDS011;53426;55.872;37.462;2023-04-03T10:09:57;26.17;;;12.70;;
66384;SDS011;53426;55.872;37.462;2023-04-03T10:12:24;33.95;;;12.32;;
66384;SDS011;53426;55.872;37.462;2023-04-03T10:14:54;15.43;;;11.55;;
66384;SDS011;53426;55.872;37.462;2023-04-03T10:17:24;32.47;;;13.57;;
66384;SDS011;53426;55.872;37.462;2023-04-03T10:26:39;31.60;;;13.80;;
66384;SDS011;53426;55.872;37.462;2023-04-03T10:28:54;24.48;;;12.50;;
66384;SDS011;53426;55.872;37.462;2023-04-03T10:39:46;35.22;;;9.70;;
66384;SDS011;53426;55.872;37.462;2023-04-03T10:42:39;19.73;;;11.15;;
66384;SDS011;53426;55.872;37.462;2023-04-03T10:45:30;18.45;;;10.90;;
66384;SDS011;53426;55.872;37.462;2023-04-03T10:51:39;19.00;;;9.77;;
66384;SDS011;53426;55.872;37.462;2023-04-03T10:56:48;12.98;;;8.20;;
66384;SDS011;53426;55.872;37.462;2023-04-03T10:59:25;11.57;;;8.60;;
66384;SDS011;53426;55.872;37.462;2023-04-03T11:04:34;9.95;;;7.50;;
66384;SDS011;53426;55.872;37.462;2023-04-03T11:07:08;17.33;;;8.60;;
66384;SDS011;53426;55.872;37.462;2023-04-03T11:09:41;15.93;;;8.05;;
66384;SDS011;53426;55.872;37.462;2023-04-03T11:15:03;21.38;;;9.30;;
66384;SDS011;53426;55.872;37.462;2023-04-03T11:17:33;20.40;;;11.15;;
66384;SDS011;53426;55.872;37.462;2023-04-03T11:23:00;23.50;;;11.85;;
66384;SDS011;53426;55.872;37.462;2023-04-03T11:25:30;19.35;;;11.73;;
66384;SDS011;53426;55.872;37.462;2023-04-03T11:28:03;34.40;;;12.52;;
66384;SDS011;53426;55.872;37.462;2023-04-03T11:30:38;27.80;;;12.10;;
66384;SDS011;53426;55.872;37.462;2023-04-03T11:35:47;20.10;;;9.73;;
66384;SDS011;53426;55.872;37.462;2023-04-03T11:38:17;19.58;;;10.32;;
66384;SDS011;53426;55.872;37.462;2023-04-03T11:40:48;20.25;;;10.88;;
66384;SDS011;53426;55.872;37.462;2023-04-03T11:43:39;26.38;;;10.98;;
66384;SDS011;53426;55.872;37.462;2023-04-03T11:46:20;26.03;;;10.90;;
66384;SDS011;53426;55.872;37.462;2023-04-03T11:48:47;19.73;;;10.77;;
66384;SDS011;53426;55.872;37.462;2023-04-03T11:53:53;26.35;;;10.77;;
66384;SDS011;53426;55.872;37.462;2023-04-03T12:01:42;16.80;;;10.23;;
66384;SDS011;53426;55.872;37.462;2023-04-03T12:04:09;28.10;;;10.13;;
66384;SDS011;53426;55.872;37.462;2023-04-03T12:10:14;25.98;;;10.40;;
66384;SDS011;53426;55.872;37.462;2023-04-03T12:14:52;18.50;;;11.00;;
66384;SDS011;53426;55.872;37.462;2023-04-03T12:17:26;23.48;;;10.35;;
66384;SDS011;53426;55.872;37.462;2023-04-03T12:19:56;20.55;;;10.10;;
66384;SDS011;53426;55.872;37.462;2023-04-03T12:22:25;15.52;;;9.90;;
66384;SDS011;53426;55.872;37.462;2023-04-03T12:24:55;28.88;;;10.20;;
66384;SDS011;53426;55.872;37.462;2023-04-03T12:41:18;19.02;;;10.30;;
66384;SDS011;53426;55.872;37.462;2023-04-03T12:46:52;18.98;;;9.77;;
66384;SDS011;53426;55.872;37.462;2023-04-03T12:49:38;27.90;;;10.43;;
66384;SDS011;53426;55.872;37.462;2023-04-03T12:52:22;37.60;;;12.07;;
66384;SDS011;53426;55.872;37.462;2023-04-03T12:54:50;23.98;;;12.30;;
66384;SDS011;53426;55.872;37.462;2023-04-03T12:57:18;14.80;;;10.07;;
66384;SDS011;53426;55.872;37.462;2023-04-03T12:59:45;19.77;;;11.02;;
66384;SDS011;53426;55.872;37.462;2023-04-03T13:05:14;12.35;;;9.23;;
66384;SDS011;53426;55.872;37.462;2023-04-03T13:07:42;20.90;;;8.90;;
66384;SDS011;53426;55.872;37.462;2023-04-03T13:12:51;16.45;;;9.48;;
66384;SDS011;53426;55.872;37.462;2023-04-03T13:15:21;26.63;;;10.02;;
66384;SDS011;53426;55.872;37.462;2023-04-03T13:17:48;16.77;;;9.75;;
66384;SDS011;53426;55.872;37.462;2023-04-03T13:25:35;24.35;;;10.27;;
66384;SDS011;53426;55.872;37.462;2023-04-03T13:28:04;22.92;;;10.85;;
66384;SDS011;53426;55.872;37.462;2023-04-03T13:30:34;24.20;;;9.75;;
66384;SDS011;53426;55.872;37.462;2023-04-03T13:33:03;16.55;;;10.43;;
66384;SDS011;53426;55.872;37.462;2023-04-03T13:38:19;20.77;;;10.18;;
66384;SDS011;53426;55.872;37.462;2023-04-03T13:40:50;12.27;;;9.68;;
66384;SDS011;53426;55.872;37.462;2023-04-03T13:43:22;17.38;;;8.25;;
66384;SDS011;53426;55.872;37.462;2023-04-03T13:45:59;16.75;;;9.20;;
66384;SDS011;53426;55.872;37.462;2023-04-03T13:48:41;16.83;;;8.65;;
66384;SDS011;53426;55.872;37.462;2023-04-03T13:53:42;17.25;;;8.77;;
66384;SDS011;53426;55.872;37.462;2023-04-03T13:56:21;21.90;;;9.20;;
66384;SDS011;53426;55.872;37.462;2023-04-03T13:58:53;20.98;;;9.43;;
66384;SDS011;53426;55.872;37.462;2023-04-03T14:01:38;19.20;;;8.38;;
66384;SDS011;53426;55.872;37.462;2023-04-03T14:04:17;13.15;;;8.20;;
66384;SDS011;53426;55.872;37.462;2023-04-03T14:06:46;21.00;;;8.73;;
66384;SDS011;53426;55.872;37.462;2023-04-03T14:09:13;14.95;;;8.35;;
66384;SDS011;53426;55.872;37.462;2023-04-03T14:11:40;10.02;;;7.63;;
66384;SDS011;53426;55.872;37.462;2023-04-03T14:14:11;20.25;;;8.10;;
66384;SDS011;53426;55.872;37.462;2023-04-03T14:16:41;11.82;;;7.90;;
66384;SDS011;53426;55.872;37.462;2023-04-03T14:19:25;19.90;;;8.50;;
66384;SDS011;53426;55.872;37.462;2023-04-03T14:21:54;10.80;;;8.00;;
66384;SDS011;53426;55.872;37.462;2023-04-03T14:24:22;15.93;;;8.93;;
66384;SDS011;53426;55.872;37.462;2023-04-03T14:26:49;27.55;;;8.75;;
66384;SDS011;53426;55.872;37.462;2023-04-03T14:29:16;13.05;;;7.40;;
66384;SDS011;53426;55.872;37.462;2023-04-03T14:31:43;14.95;;;9.13;;
66384;SDS011;53426;55.872;37.462;2023-04-03T14:34:11;16.15;;;8.20;;
66384;SDS011;53426;55.872;37.462;2023-04-03T14:36:38;18.75;;;8.52;;
66384;SDS011;53426;55.872;37.462;2023-04-03T14:39:07;15.27;;;9.40;;
66384;SDS011;53426;55.872;37.462;2023-04-03T14:41:35;12.65;;;8.32;;
66384;SDS011;53426;55.872;37.462;2023-04-03T14:44:01;18.42;;;9.23;;
66384;SDS011;53426;55.872;37.462;2023-04-03T14:46:29;15.88;;;9.45;;
66384;SDS011;53426;55.872;37.462;2023-04-03T14:48:57;13.13;;;8.57;;
66384;SDS011;53426;55.872;37.462;2023-04-03T14:51:24;13.45;;;8.85;;
66384;SDS011;53426;55.872;37.462;2023-04-03T14:53:51;8.75;;;7.85;;
66384;SDS011;53426;55.872;37.462;2023-04-03T14:56:19;16.48;;;9.35;;
66384;SDS011;53426;55.872;37.462;2023-04-03T14:59:00;18.55;;;8.50;;
66384;SDS011;53426;55.872;37.462;2023-04-03T15:01:27;16.30;;;9.10;;
66384;SDS011;53426;55.872;37.462;2023-04-03T15:03:53;15.80;;;8.63;;
66384;SDS011;53426;55.872;37.462;2023-04-03T15:06:20;12.93;;;8.82;;
66384;SDS011;53426;55.872;37.462;2023-04-03T15:08:46;12.05;;;8.65;;
66384;SDS011;53426;55.872;37.462;2023-04-03T15:11:13;15.30;;;9.25;;
66384;SDS011;53426;55.872;37.462;2023-04-03T15:13:40;21.60;;;9.30;;
66384;SDS011;53426;55.872;37.462;2023-04-03T15:16:12;17.00;;;8.55;;
66384;SDS011;53426;55.872;37.462;2023-04-03T15:18:41;15.87;;;9.80;;
66384;SDS011;53426;55.872;37.462;2023-04-03T15:21:09;16.80;;;9.77;;
66384;SDS011;53426;55.872;37.462;2023-04-03T15:23:36;21.55;;;9.13;;
66384;SDS011;53426;55.872;37.462;2023-04-03T15:26:02;22.65;;;10.43;;
66384;SDS011;53426;55.872;37.462;2023-04-03T15:28:29;14.88;;;9.25;;
66384;SDS011;53426;55.872;37.462;2023-04-03T15:30:56;16.50;;;9.75;;
66384;SDS011;53426;55.872;37.462;2023-04-03T15:33:23;20.45;;;9.70;;
66384;SDS011;53426;55.872;37.462;2023-04-03T15:35:49;13.73;;;10.35;;
66384;SDS011;53426;55.872;37.462;2023-04-03T15:38:14;24.13;;;12.43;;
66384;SDS011;53426;55.872;37.462;2023-04-03T15:40:40;17.80;;;12.27;;
66384;SDS011;53426;55.872;37.462;2023-04-03T15:43:07;20.45;;;11.50;;
66384;SDS011;53426;55.872;37.462;2023-04-03T15:45:34;17.35;;;11.13;;
66384;SDS011;53426;55.872;37.462;2023-04-03T15:48:02;29.75;;;12.85;;
66384;SDS011;53426;55.872;37.462;2023-04-03T15:50:31;21.50;;;12.35;;
66384;SDS011;53426;55.872;37.462;2023-04-03T15:52:58;31.60;;;12.60;;
66384;SDS011;53426;55.872;37.462;2023-04-03T15:55:27;18.70;;;12.68;;
66384;SDS011;53426;55.872;37.462;2023-04-03T15:57:54;26.42;;;13.50;;
66384;SDS011;53426;55.872;37.462;2023-04-03T16:00:21;18.23;;;12.77;;
66384;SDS011;53426;55.872;37.462;2023-04-03T16:02:48;22.95;;;13.77;;
66384;SDS011;53426;55.872;37.462;2023-04-03T16:05:17;19.52;;;13.98;;
66384;SDS011;53426;55.872;37.462;2023-04-03T16:07:44;22.13;;;13.88;;